Time;durP1;ratioP1;P1;durP2;ratioP2;P2;SDS_P1;SDS_P2;PMS_P1;PMS_P2;Temp;Humidity;BMP_temperature;BMP_pressure;BME280_temperature;BME280_humidity;BME280_pressure;Samples;Min_cycle;Max_cycle;Signal;HPM_P1;HPM_P2
2021/12/18 00:01:48;;;;;;;;;45.50;34.00;;;;;7.59;73.75;103324.34;4955983;28;45444;-75
2021/12/18 00:04:13;;;;;;;;;46.00;34.25;;;;;7.48;73.95;103322.78;4998713;28;46570;-74
2021/12/18 00:06:38;;;;;;;;;40.25;29.50;;;;;7.43;74.32;103307.53;4993681;28;45382;-74
2021/12/18 00:09:04;;;;;;;;;36.75;34.00;;;;;7.53;74.28;103337.13;4979303;28;47592;-74
2021/12/18 00:11:29;;;;;;;;;42.25;31.50;;;;;7.51;74.24;103322.03;4979456;28;45245;-74
2021/12/18 00:13:55;;;;;;;;;39.75;30.75;;;;;7.43;74.21;103308.44;4978993;28;55022;-73
2021/12/18 00:16:20;;;;;;;;;29.00;23.75;;;;;7.49;73.86;103327.22;4988275;28;45417;-73
2021/12/18 00:18:48;;;;;;;;;42.25;32.75;;;;;7.47;74.20;103320.06;4998988;28;45318;-74
2021/12/18 00:21:17;;;;;;;;;36.25;32.50;;;;;7.38;74.50;103307.22;4994022;28;45548;-74
2021/12/18 00:23:42;;;;;;;;;40.25;35.50;;;;;7.45;74.46;103316.41;4979115;28;46901;-74
2021/12/18 00:26:08;;;;;;;;;37.25;32.50;;;;;7.46;74.11;103318.25;4978796;28;45298;-75
2021/12/18 00:28:33;;;;;;;;;35.50;33.00;;;;;7.42;74.50;103310.97;4973328;28;45425;-74
2021/12/18 00:30:59;;;;;;;;;39.50;32.00;;;;;7.34;74.50;103295.59;4998571;28;45624;-74
2021/12/18 00:33:24;;;;;;;;;46.00;33.50;;;;;7.32;74.60;103291.97;4964670;28;45907;-75
2021/12/18 00:35:50;;;;;;;;;32.75;29.00;;;;;7.38;74.31;103293.19;4980030;28;45212;-75
2021/12/18 00:38:15;;;;;;;;;36.75;30.75;;;;;7.43;74.15;103302.25;4986295;28;45330;-74
2021/12/18 00:40:59;;;;;;;;;39.50;29.75;;;;;7.41;74.25;103310.06;4992290;28;45174;-74
2021/12/18 00:43:28;;;;;;;;;35.50;29.25;;;;;7.40;73.86;103309.94;4982577;28;46775;-73
2021/12/18 00:45:54;;;;;;;;;47.00;36.75;;;;;7.37;74.19;103304.50;4996544;28;45922;-74
2021/12/18 00:48:19;;;;;;;;;40.00;26.50;;;;;7.37;74.13;103308.03;4996947;28;45302;-74
2021/12/18 00:50:45;;;;;;;;;38.00;31.25;;;;;7.31;74.40;103313.81;4996054;28;45476;-74
2021/12/18 00:53:10;;;;;;;;;37.50;33.75;;;;;7.26;74.28;103291.59;4997971;28;46855;-75
2021/12/18 00:55:37;;;;;;;;;38.50;32.00;;;;;7.32;74.07;103309.47;4997784;28;53484;-74
2021/12/18 00:58:02;;;;;;;;;34.25;26.75;;;;;7.20;74.28;103277.16;4964472;28;45446;-74
2021/12/18 01:00:28;;;;;;;;;31.75;27.25;;;;;7.27;74.23;103296.03;4997857;28;45468;-73
2021/12/18 01:02:58;;;;;;;;;35.00;31.00;;;;;7.26;74.23;103301.19;4983445;28;46335;-74
2021/12/18 01:05:24;;;;;;;;;39.75;33.25;;;;;7.16;74.10;103285.66;4981699;28;45483;-75
2021/12/18 01:07:50;;;;;;;;;37.75;34.00;;;;;7.22;73.98;103299.19;4982740;28;45812;-74
2021/12/18 01:12:44;;;;;;;;;44.50;29.25;;;;;7.20;74.04;103295.56;4980046;28;45593;-73
2021/12/18 01:15:21;;;;;;;;;41.00;31.50;;;;;7.18;74.15;103305.94;4988494;28;45386;-74
2021/12/18 01:23:15;;;;;;;;;40.50;32.00;;;;;7.12;73.88;103310.81;4980415;28;45325;-75
2021/12/18 01:25:40;;;;;;;;;42.25;27.75;;;;;7.07;73.79;103313.13;4978081;28;45259;-73
2021/12/18 01:28:06;;;;;;;;;41.00;27.50;;;;;6.96;74.00;103292.22;4976829;28;45877;-73
2021/12/18 01:30:31;;;;;;;;;41.50;32.75;;;;;7.06;74.02;103320.91;4960896;28;45462;-74
2021/12/18 01:32:56;;;;;;;;;43.00;30.00;;;;;7.03;74.16;103320.72;4984068;28;52900;-73
2021/12/18 01:35:22;;;;;;;;;39.75;34.25;;;;;7.02;74.26;103319.78;4978528;28;45170;-74
2021/12/18 01:37:49;;;;;;;;;53.00;41.25;;;;;6.92;74.14;103299.00;4960702;28;45519;-74
2021/12/18 01:40:15;;;;;;;;;37.75;30.25;;;;;7.02;73.75;103318.88;4993818;28;45394;-74
2021/12/18 01:53:53;;;;;;;;;36.75;30.00;;;;;6.83;74.54;103301.94;4974448;28;47305;-74
2021/12/18 01:56:19;;;;;;;;;41.50;29.75;;;;;6.85;74.42;103311.63;4996861;28;45392;-73
2021/12/18 01:58:45;;;;;;;;;28.25;26.25;;;;;6.90;74.12;103323.34;4997098;28;45356;-75
2021/12/18 02:01:10;;;;;;;;;30.00;25.25;;;;;6.89;73.76;103314.56;4982392;28;45711;-74
2021/12/18 02:03:36;;;;;;;;;28.00;22.75;;;;;6.90;74.05;103318.09;4977283;28;46472;-74
2021/12/18 02:06:02;;;;;;;;;36.75;25.75;;;;;6.86;74.04;103318.69;4973940;28;45424;-73
2021/12/18 02:08:27;;;;;;;;;40.50;34.00;;;;;6.89;74.08;103325.06;4979717;28;45292;-73
2021/12/18 02:11:08;;;;;;;;;36.00;26.75;;;;;6.85;73.97;103328.28;4997303;28;45469;-74
2021/12/18 02:13:58;;;;;;;;;34.25;24.75;;;;;6.84;74.13;103323.84;4975267;28;46679;-74
2021/12/18 02:19:56;;;;;;;;;36.00;27.00;;;;;6.81;74.34;103334.16;4996891;28;45502;-74
2021/12/18 02:21:51;;;;;;;;;29.00;22.00;;;;;6.77;74.70;103322.56;4989740;28;45473;-74
2021/12/18 02:24:19;;;;;;;;;34.25;26.50;;;;;6.70;74.73;103311.53;4978610;28;47648;-74
2021/12/18 02:26:44;;;;;;;;;36.25;25.00;;;;;6.77;74.96;103319.03;4997151;28;45247;-74
2021/12/18 02:29:14;;;;;;;;;40.25;29.25;;;;;6.77;74.63;103319.94;4996488;28;45389;-74
2021/12/18 02:31:40;;;;;;;;;27.75;25.25;;;;;6.68;74.52;103314.06;4984945;28;45150;-74
2021/12/18 02:34:10;;;;;;;;;32.25;28.00;;;;;6.79;74.61;103322.66;4976875;28;47680;-74
2021/12/18 02:36:42;;;;;;;;;31.75;27.00;;;;;6.82;74.46;103320.22;4977240;28;45278;-74
2021/12/18 02:42:17;;;;;;;;;36.00;26.00;;;;;6.82;74.74;103318.50;4916395;28;45542;-74
2021/12/18 02:44:43;;;;;;;;;26.25;24.25;;;;;6.79;74.65;103317.38;4917067;28;45748;-74
2021/12/18 02:47:09;;;;;;;;;33.25;29.00;;;;;6.85;74.65;103324.75;4937283;28;45542;-73
2021/12/18 02:49:35;;;;;;;;;36.50;29.50;;;;;6.87;74.60;103315.25;4983027;28;45232;-74
2021/12/18 02:52:00;;;;;;;;;29.75;23.75;;;;;6.88;74.86;103318.00;4977242;28;45336;-75
2021/12/18 02:54:26;;;;;;;;;27.75;23.75;;;;;6.93;74.61;103318.31;4976667;28;46108;-74
2021/12/18 02:56:52;;;;;;;;;32.25;27.00;;;;;7.01;74.59;103319.72;4990893;28;45427;-75
2021/12/18 02:59:17;;;;;;;;;32.50;26.75;;;;;6.88;74.41;103299.63;4996368;28;45306;-74
2021/12/18 03:01:42;;;;;;;;;36.75;26.25;;;;;7.06;74.10;103323.53;4996608;28;45539;-75
2021/12/18 03:04:23;;;;;;;;;29.00;24.75;;;;;7.08;74.10;103319.28;4979033;28;45731;-74
2021/12/18 03:06:53;;;;;;;;;32.25;27.75;;;;;7.10;74.16;103317.69;4996688;28;45349;-73
2021/12/18 03:27:35;;;;;;;;;28.75;26.25;;;;;7.41;73.37;103331.09;4980806;28;45466;-74
2021/12/18 03:30:01;;;;;;;;;35.50;29.00;;;;;7.42;73.07;103319.75;4946085;28;45288;-75
2021/12/18 03:32:26;;;;;;;;;34.25;27.00;;;;;7.34;73.05;103300.84;4979775;28;45335;-75
2021/12/18 03:34:52;;;;;;;;;33.00;26.00;;;;;7.47;73.23;103318.34;4979855;28;45964;-74
2021/12/18 03:37:18;;;;;;;;;30.25;25.25;;;;;7.50;72.96;103320.22;4992751;28;45349;-74
2021/12/18 03:39:44;;;;;;;;;31.75;27.75;;;;;7.38;73.18;103298.44;4968359;28;45287;-75
2021/12/18 03:42:09;;;;;;;;;32.25;26.75;;;;;7.39;73.21;103295.91;4981976;28;45433;-74
2021/12/18 03:44:35;;;;;;;;;30.75;27.75;;;;;7.50;73.52;103312.34;4999170;28;46407;-74
2021/12/18 03:47:00;;;;;;;;;31.75;23.25;;;;;7.50;73.72;103305.38;4999159;28;45320;-74
2021/12/18 03:49:25;;;;;;;;;33.50;28.75;;;;;7.48;73.60;103300.84;4999419;28;45275;-73
2021/12/18 03:51:51;;;;;;;;;27.00;25.25;;;;;7.37;73.52;103273.88;4993831;28;45568;-74
2021/12/18 03:54:16;;;;;;;;;33.00;25.75;;;;;7.57;73.39;103296.16;4979260;28;46067;-74
2021/12/18 03:56:42;;;;;;;;;31.50;27.00;;;;;7.61;73.55;103301.69;4991371;28;45411;-74
2021/12/18 03:59:07;;;;;;;;;27.50;24.00;;;;;7.61;73.28;103296.44;4999115;28;45353;-74
2021/12/18 04:01:33;;;;;;;;;42.25;29.75;;;;;7.62;73.67;103281.59;4998656;28;45407;-74
2021/12/18 04:03:58;;;;;;;;;27.75;23.75;;;;;7.63;73.69;103286.03;4988439;28;49584;-73
2021/12/18 04:06:23;;;;;;;;;29.25;22.50;;;;;7.67;73.69;103288.03;4991559;28;48435;-75
2021/12/18 04:08:49;;;;;;;;;27.25;23.25;;;;;7.73;73.57;103291.06;4979623;28;45282;-74
2021/12/18 04:11:14;;;;;;;;;34.00;27.00;;;;;7.71;73.31;103289.13;4979550;28;45336;-74
2021/12/18 04:13:44;;;;;;;;;31.00;27.50;;;;;7.71;73.51;103294.38;4979183;28;46338;-75
2021/12/18 04:16:09;;;;;;;;;33.75;26.00;;;;;7.67;73.64;103279.22;4986817;28;45363;-74
2021/12/18 04:18:35;;;;;;;;;30.00;24.00;;;;;7.80;73.55;103297.59;4981303;28;45232;-74
2021/12/18 04:21:00;;;;;;;;;34.50;26.25;;;;;7.73;73.36;103277.00;4966539;28;45449;-74
2021/12/18 04:23:26;;;;;;;;;29.25;22.50;;;;;7.80;73.73;103290.59;4977410;28;55816;-74
2021/12/18 04:25:51;;;;;;;;;34.00;26.75;;;;;7.86;73.45;103292.69;4980591;28;46285;-74
2021/12/18 04:28:17;;;;;;;;;30.00;25.00;;;;;7.90;73.66;103291.19;4979342;28;45512;-74
2021/12/18 04:30:42;;;;;;;;;28.50;24.50;;;;;7.80;73.52;103269.56;4980682;28;45377;-74
2021/12/18 04:33:08;;;;;;;;;34.00;24.25;;;;;7.92;73.65;103287.81;4978747;28;47357;-75
2021/12/18 04:35:33;;;;;;;;;31.00;27.25;;;;;7.94;73.83;103295.81;4978368;28;56613;-75
2021/12/18 04:37:59;;;;;;;;;37.25;29.00;;;;;7.87;73.78;103277.00;4979303;28;45321;-74
2021/12/18 04:40:26;;;;;;;;;29.75;27.00;;;;;7.98;73.62;103295.16;4990088;28;45564;-75
2021/12/18 04:42:53;;;;;;;;;29.50;25.50;;;;;7.98;73.62;103282.00;4998527;28;46577;-75
2021/12/18 04:45:18;;;;;;;;;37.25;32.00;;;;;8.01;73.59;103291.00;4993714;28;45404;-74
2021/12/18 04:47:43;;;;;;;;;41.50;30.00;;;;;8.05;73.39;103293.03;4990221;28;45351;-75
2021/12/18 04:50:09;;;;;;;;;37.25;25.50;;;;;7.95;73.35;103268.69;4980863;28;45505;-75
2021/12/18 04:52:34;;;;;;;;;36.50;28.25;;;;;8.17;73.40;103302.47;4980239;28;48638;-74
2021/12/18 04:55:00;;;;;;;;;36.00;30.25;;;;;8.20;73.45;103300.91;4962917;28;46952;-75
2021/12/18 04:57:25;;;;;;;;;29.25;25.50;;;;;8.26;73.28;103298.69;4972212;28;45327;-73
2021/12/18 04:59:51;;;;;;;;;35.50;28.75;;;;;8.30;73.20;103297.09;4978113;28;45498;-74
2021/12/18 05:02:20;;;;;;;;;35.00;27.00;;;;;8.28;73.30;103288.22;4961065;28;46825;-75
2021/12/18 05:04:45;;;;;;;;;31.25;25.75;;;;;8.32;73.08;103285.88;4961227;28;45861;-73
2021/12/18 05:07:11;;;;;;;;;34.25;27.00;;;;;8.39;73.01;103289.81;4978491;28;45901;-74
2021/12/18 05:09:39;;;;;;;;;32.00;27.50;;;;;8.51;73.01;103302.78;4978325;28;45514;-75
2021/12/18 05:12:05;;;;;;;;;38.50;29.50;;;;;8.43;72.66;103290.91;4978180;28;47696;-75
2021/12/18 05:14:30;;;;;;;;;27.75;25.50;;;;;8.54;72.97;103298.63;4980040;28;45221;-74
2021/12/18 05:16:55;;;;;;;;;38.25;31.75;;;;;8.51;72.79;103286.97;4992122;28;47931;-74
2021/12/18 05:19:21;;;;;;;;;35.00;27.75;;;;;8.55;72.70;103294.25;4994832;28;49410;-75
2021/12/18 05:21:46;;;;;;;;;30.50;25.25;;;;;8.55;72.67;103294.25;4989810;28;46470;-75
2021/12/18 05:24:12;;;;;;;;;33.50;27.25;;;;;8.65;72.45;103315.03;4963448;28;45232;-74
2021/12/18 05:26:37;;;;;;;;;33.25;25.25;;;;;8.67;72.41;103310.75;4982176;28;45306;-74
2021/12/18 05:29:03;;;;;;;;;27.50;24.00;;;;;8.69;72.37;103306.50;4978300;28;45168;-73
2021/12/18 05:31:28;;;;;;;;;32.75;28.00;;;;;8.72;72.37;103300.50;4977859;28;51017;-74
2021/12/18 05:33:58;;;;;;;;;29.50;24.75;;;;;8.66;72.40;103283.53;4977886;28;45358;-74
2021/12/18 05:36:32;;;;;;;;;34.50;30.00;;;;;8.75;72.33;103304.22;4977859;28;45581;-73
2021/12/18 05:39:05;;;;;;;;;33.25;29.00;;;;;8.78;72.33;103303.47;4961667;28;45402;-73
2021/12/18 05:41:30;;;;;;;;;37.50;26.50;;;;;8.81;72.11;103309.84;4950791;28;48660;-74
2021/12/18 05:43:56;;;;;;;;;33.00;24.00;;;;;8.72;71.72;103287.31;4960589;28;45433;-73
2021/12/18 05:46:21;;;;;;;;;41.75;32.25;;;;;8.83;71.90;103300.28;4982814;28;45343;-75
2021/12/18 05:48:47;;;;;;;;;30.75;25.00;;;;;8.84;72.04;103302.13;4997547;28;45576;-74
2021/12/18 05:51:12;;;;;;;;;41.50;26.75;;;;;8.86;71.69;103302.22;4970242;28;47373;-75
2021/12/18 05:53:38;;;;;;;;;27.50;22.25;;;;;8.86;71.67;103289.94;4988254;28;45463;-75
2021/12/18 05:56:04;;;;;;;;;31.00;28.00;;;;;8.82;71.84;103280.03;4977854;28;45362;-74
2021/12/18 05:58:29;;;;;;;;;31.25;24.00;;;;;8.88;71.40;103287.38;4976176;28;45216;-75
2021/12/18 06:00:54;;;;;;;;;34.75;23.00;;;;;8.91;71.59;103304.28;4985797;28;49136;-73
2021/12/18 06:03:20;;;;;;;;;35.50;26.25;;;;;8.92;71.55;103297.28;4977731;28;45461;-74
2021/12/18 06:05:45;;;;;;;;;27.50;23.50;;;;;8.91;71.44;103292.84;4977477;28;45493;-75
2021/12/18 06:08:13;;;;;;;;;28.50;23.75;;;;;8.83;71.50;103276.59;4943687;28;55434;-74
2021/12/18 06:10:39;;;;;;;;;25.75;22.25;;;;;8.95;71.15;103302.75;4977406;28;45634;-74
2021/12/18 06:13:05;;;;;;;;;28.25;22.00;;;;;8.58;70.90;103229.50;4977285;28;45506;-73
2021/12/18 06:15:30;;;;;;;;;27.75;22.25;;;;;8.84;71.25;103269.59;4965255;28;47145;-74
2021/12/18 06:17:56;;;;;;;;;27.25;24.75;;;;;8.95;71.15;103284.31;4995989;28;45378;-75
2021/12/18 06:20:22;;;;;;;;;30.50;23.75;;;;;8.91;70.86;103285.84;4979197;28;45838;-74
2021/12/18 06:22:48;;;;;;;;;37.25;29.75;;;;;8.86;71.13;103278.50;4996998;28;45298;-75
2021/12/18 06:25:13;;;;;;;;;32.50;26.25;;;;;8.82;70.74;103277.41;4963560;28;45256;-74
2021/12/18 06:27:39;;;;;;;;;35.25;24.00;;;;;8.82;70.82;103285.31;4997013;28;45336;-74
2021/12/18 06:30:05;;;;;;;;;29.50;25.50;;;;;8.75;70.86;103293.69;4996613;28;49606;-74
2021/12/18 06:32:30;;;;;;;;;24.50;22.50;;;;;8.75;70.51;103293.69;4960844;28;45448;-75
2021/12/18 06:34:56;;;;;;;;;28.00;25.00;;;;;8.77;71.02;103297.31;4966954;28;45306;-74
2021/12/18 06:37:21;;;;;;;;;31.00;25.75;;;;;8.75;70.90;103301.59;4991076;28;45531;-75
2021/12/18 06:39:47;;;;;;;;;33.25;27.75;;;;;8.65;70.83;103280.81;4966716;28;47232;-74
2021/12/18 06:42:12;;;;;;;;;21.25;20.50;;;;;8.66;70.76;103296.69;5139331;22;45544;-73
2021/12/18 06:44:39;;;;;;;;;31.25;22.50;;;;;8.68;70.69;103304.66;5024716;28;45277;-73
2021/12/18 06:47:04;;;;;;;;;27.00;23.25;;;;;8.60;70.77;103303.34;5013238;28;45305;-73
2021/12/18 06:49:29;;;;;;;;;33.25;25.25;;;;;8.53;70.85;103303.78;5032039;28;51552;-74
2021/12/18 06:51:55;;;;;;;;;27.50;22.00;;;;;8.36;70.83;103282.66;5009902;28;45410;-74
2021/12/18 06:54:20;;;;;;;;;20.25;18.75;;;;;8.42;70.94;103302.25;5025461;28;45474;-74
2021/12/18 06:56:46;;;;;;;;;32.50;26.00;;;;;8.34;70.99;103310.56;5038998;28;45402;-74
2021/12/18 06:59:11;;;;;;;;;32.50;20.25;;;;;8.31;71.14;103309.44;5035629;28;50014;-74
2021/12/18 07:01:37;;;;;;;;;31.50;24.25;;;;;8.25;70.97;103307.34;5029410;28;45364;-73
2021/12/18 07:04:02;;;;;;;;;27.00;22.75;;;;;8.20;70.97;103308.81;5032256;28;45381;-73
2021/12/18 07:06:28;;;;;;;;;31.75;22.25;;;;;8.13;71.24;103302.28;5036325;28;45402;-74
2021/12/18 07:08:54;;;;;;;;;35.25;25.75;;;;;8.12;71.23;103317.97;5014138;28;45784;-73
2021/12/18 07:11:19;;;;;;;;;24.00;21.25;;;;;8.08;71.24;103316.88;5032350;28;59262;-73
2021/12/18 07:13:45;;;;;;;;;24.00;22.00;;;;;7.97;71.29;103306.50;5016382;28;45672;-74
2021/12/18 07:16:10;;;;;;;;;26.25;20.50;;;;;8.02;71.17;103323.50;5036339;28;45839;-73
2021/12/18 07:18:35;;;;;;;;;31.00;22.75;;;;;7.97;71.28;103317.03;5032747;28;50722;-74
2021/12/18 07:21:01;;;;;;;;;29.50;22.00;;;;;7.95;71.47;103318.69;5009877;28;46347;-73
2021/12/18 07:23:26;;;;;;;;;23.75;19.50;;;;;7.94;71.57;103320.41;5035078;28;45495;-73
2021/12/18 07:25:52;;;;;;;;;27.75;20.00;;;;;7.89;71.43;103324.47;5037146;28;45392;-74
2021/12/18 07:28:17;;;;;;;;;37.50;23.50;;;;;7.90;71.50;103328.00;5033407;28;46702;-74
2021/12/18 07:30:43;;;;;;;;;35.50;24.75;;;;;7.87;71.45;103332.25;5037672;28;45351;-75
2021/12/18 07:33:11;;;;;;;;;25.75;20.75;;;;;7.84;71.40;103341.69;5038248;28;45526;-74
2021/12/18 07:35:39;;;;;;;;;31.50;26.75;;;;;7.80;71.78;103332.69;5037817;28;45292;-74
2021/12/18 07:38:05;;;;;;;;;29.50;21.50;;;;;7.77;71.45;103337.75;5023848;28;46864;-74
2021/12/18 07:40:30;;;;;;;;;27.25;22.50;;;;;7.65;71.58;103329.09;5024268;28;45439;-74
2021/12/18 07:42:56;;;;;;;;;26.25;20.25;;;;;7.62;71.66;103323.66;5003408;28;45378;-73
2021/12/18 07:45:21;;;;;;;;;33.75;26.00;;;;;7.70;71.64;103337.28;5019623;28;49811;-75
2021/12/18 07:47:46;;;;;;;;;30.00;22.25;;;;;7.70;71.66;103334.66;5036934;28;46528;-75
2021/12/18 07:50:18;;;;;;;;;33.50;26.00;;;;;7.69;71.40;103339.00;5035750;28;45533;-74
2021/12/18 07:52:44;;;;;;;;;32.00;25.00;;;;;7.64;71.66;103329.00;5029641;28;45297;-74
2021/12/18 07:55:10;;;;;;;;;30.50;21.75;;;;;7.65;71.55;103333.44;5036607;28;45246;-73
2021/12/18 07:57:36;;;;;;;;;33.75;25.75;;;;;7.54;71.61;103317.91;5036388;28;45681;-74
2021/12/18 08:00:04;;;;;;;;;29.75;26.25;;;;;7.52;71.46;103319.53;5032918;28;46783;-73
2021/12/18 08:02:29;;;;;;;;;24.25;21.00;;;;;7.53;71.77;103323.06;5036804;28;45542;-73
2021/12/18 08:04:55;;;;;;;;;32.75;20.75;;;;;7.58;71.90;103329.53;5038606;28;46825;-75
2021/12/18 08:07:21;;;;;;;;;24.75;22.00;;;;;7.60;71.94;103338.41;5038044;28;45381;-75
2021/12/18 08:09:46;;;;;;;;;29.50;24.50;;;;;7.60;71.98;103325.25;5038037;28;45360;-74
2021/12/18 08:12:12;;;;;;;;;32.25;25.00;;;;;7.62;72.10;103336.81;5031242;28;45435;-75
2021/12/18 08:14:37;;;;;;;;;26.50;23.00;;;;;7.62;72.04;103331.53;5028449;28;45456;-72
2021/12/18 08:17:03;;;;;;;;;35.50;28.50;;;;;7.64;72.02;103334.25;5015563;28;46369;-71
2021/12/18 08:19:28;;;;;;;;;25.75;20.50;;;;;7.66;71.80;103336.16;5035970;28;45634;-74
2021/12/18 08:21:54;;;;;;;;;28.25;22.25;;;;;7.66;71.89;103338.78;5033870;28;47790;-73
2021/12/18 08:24:19;;;;;;;;;30.75;25.75;;;;;7.69;71.84;103338.09;5032249;28;45373;-72
2021/12/18 08:26:45;;;;;;;;;28.75;24.75;;;;;7.70;71.78;103342.53;5014979;28;49278;-71
2021/12/18 08:29:10;;;;;;;;;32.25;26.75;;;;;7.60;72.01;103325.25;5022045;28;45405;-71
2021/12/18 08:31:36;;;;;;;;;26.75;25.50;;;;;7.69;71.93;103341.63;5034895;28;45473;-72
2021/12/18 08:34:01;;;;;;;;;22.25;20.75;;;;;7.72;71.80;103347.06;5007973;28;45443;-70
2021/12/18 08:36:26;;;;;;;;;22.00;17.50;;;;;7.71;71.79;103353.13;5032604;28;45420;-75
2021/12/18 08:38:52;;;;;;;;;24.25;20.50;;;;;7.72;71.88;103344.44;5026119;28;51581;-74
2021/12/18 08:41:19;;;;;;;;;27.00;23.75;;;;;7.71;71.75;103346.97;5035046;28;45709;-74
2021/12/18 08:43:45;;;;;;;;;29.75;22.75;;;;;7.73;71.88;103343.66;5019221;28;45650;-74
2021/12/18 08:46:10;;;;;;;;;29.75;20.50;;;;;7.72;71.87;103344.44;5024214;28;46795;-73
2021/12/18 08:48:35;;;;;;;;;25.25;20.50;;;;;7.66;71.84;103338.78;5027412;28;46645;-73
2021/12/18 08:51:01;;;;;;;;;28.00;23.00;;;;;7.76;71.55;103359.59;5012196;28;45503;-74
2021/12/18 08:53:26;;;;;;;;;27.00;25.00;;;;;7.66;71.70;103337.88;5014008;28;45748;-72
2021/12/18 08:55:52;;;;;;;;;34.50;24.25;;;;;7.63;71.90;103327.19;5021460;28;46507;-72
2021/12/18 08:58:17;;;;;;;;;43.25;29.50;;;;;7.78;71.82;103350.09;5022664;28;45528;-73
2021/12/18 09:00:43;;;;;;;;;40.00;30.00;;;;;7.83;71.84;103353.03;5007644;28;45444;-72
2021/12/18 09:03:08;;;;;;;;;31.50;25.25;;;;;7.82;71.73;103345.91;5013003;28;45544;-73
2021/12/18 09:05:34;;;;;;;;;32.00;24.50;;;;;7.84;71.61;103347.84;5018076;28;45631;-74
2021/12/18 09:08:00;;;;;;;;;26.25;23.50;;;;;7.86;71.56;103342.69;5026325;28;46381;-73
2021/12/18 09:10:25;;;;;;;;;26.75;21.50;;;;;7.87;71.28;103339.22;5027032;28;45447;-74
2021/12/18 09:12:59;;;;;;;;;32.00;22.25;;;;;7.90;71.42;103349.94;5003160;28;45226;-73
2021/12/18 09:15:28;;;;;;;;;26.25;18.25;;;;;7.89;71.50;103342.88;5012214;28;48424;-74
2021/12/18 09:17:53;;;;;;;;;24.00;19.75;;;;;7.93;71.44;103343.97;5023266;28;46898;-74
2021/12/18 09:20:19;;;;;;;;;22.50;21.75;;;;;7.95;71.45;103338.00;5026867;28;45572;-74
2021/12/18 09:22:44;;;;;;;;;24.75;20.50;;;;;7.95;71.49;103329.19;5026954;28;45578;-73
2021/12/18 09:25:10;;;;;;;;;28.50;24.00;;;;;7.95;71.43;103330.09;5022676;28;47408;-74
2021/12/18 09:27:36;;;;;;;;;26.50;23.75;;;;;7.94;71.27;103324.75;5023931;28;45389;-74
2021/12/18 09:30:03;;;;;;;;;27.25;22.00;;;;;7.93;71.30;103315.94;5021131;28;45406;-74
2021/12/18 09:32:29;;;;;;;;;29.00;23.00;;;;;7.90;71.36;103307.88;5030255;28;46325;-73
2021/12/18 09:34:55;;;;;;;;;25.50;20.00;;;;;7.98;71.20;103313.59;5033558;28;47350;-74
2021/12/18 09:37:20;;;;;;;;;24.50;19.25;;;;;8.01;71.49;103316.41;5035256;28;45242;-74
2021/12/18 09:39:46;;;;;;;;;30.75;25.25;;;;;8.06;71.39;103321.16;5016285;28;51377;-74
2021/12/18 09:42:11;;;;;;;;;27.25;21.25;;;;;8.05;71.10;103315.81;5032085;28;45455;-73
2021/12/18 09:44:36;;;;;;;;;20.50;19.50;;;;;8.07;70.98;103325.59;5032886;28;52415;-74
2021/12/18 09:47:03;;;;;;;;;30.00;21.25;;;;;8.08;71.18;103321.22;5033018;28;45424;-74
2021/12/18 09:49:28;;;;;;;;;27.00;22.00;;;;;7.99;70.94;103307.50;5033854;28;45451;-74
2021/12/18 09:51:54;;;;;;;;;26.25;19.75;;;;;8.12;70.94;103320.59;5015527;28;45448;-74
2021/12/18 09:54:19;;;;;;;;;30.75;26.75;;;;;8.13;70.85;103323.31;5035227;28;46186;-73
2021/12/18 09:56:45;;;;;;;;;33.25;29.50;;;;;8.14;70.93;103321.59;5023738;28;49016;-74
2021/12/18 09:59:10;;;;;;;;;26.75;21.75;;;;;8.20;70.75;103327.22;5016316;28;45515;-73
2021/12/18 10:01:36;;;;;;;;;30.00;23.00;;;;;8.21;70.72;103321.19;5034704;28;45364;-74
2021/12/18 10:04:02;;;;;;;;;22.75;22.25;;;;;8.14;70.81;103304.09;5016742;28;45455;-73
2021/12/18 10:06:39;;;;;;;;;28.00;25.00;;;;;8.27;70.84;103326.81;5021106;28;45523;-73
2021/12/18 10:09:09;;;;;;;;;38.25;24.00;;;;;8.22;70.70;103308.91;5030898;28;45530;-74
2021/12/18 10:11:44;;;;;;;;;33.75;25.50;;;;;8.31;70.80;103320.91;5022798;28;45516;-73
2021/12/18 10:14:09;;;;;;;;;30.50;26.00;;;;;8.35;70.86;103316.72;5012214;28;47808;-73
2021/12/18 10:16:35;;;;;;;;;32.75;24.25;;;;;8.38;70.50;103312.59;5025184;28;45432;-74
2021/12/18 10:19:01;;;;;;;;;27.25;22.50;;;;;8.40;70.60;103317.94;4995588;28;45345;-73
2021/12/18 10:21:27;;;;;;;;;23.25;21.75;;;;;8.44;70.49;103321.69;5030236;28;45426;-74
2021/12/18 10:23:53;;;;;;;;;29.75;26.75;;;;;8.33;70.23;103303.47;5028567;28;47441;-73
2021/12/18 10:26:38;;;;;;;;;34.25;27.50;;;;;8.37;70.17;103307.25;5013039;28;45546;-74
2021/12/18 10:29:05;;;;;;;;;32.50;27.75;;;;;8.38;70.56;103294.16;5035427;28;45363;-73
2021/12/18 10:31:44;;;;;;;;;28.25;24.00;;;;;8.47;69.96;103314.88;5020084;28;45548;-74
2021/12/18 10:34:24;;;;;;;;;30.75;25.25;;;;;8.45;70.17;103291.91;5033472;28;46117;-73
2021/12/18 10:37:09;;;;;;;;;24.00;23.25;;;;;8.55;70.20;103305.69;5030543;28;45469;-73
2021/12/18 10:39:35;;;;;;;;;31.50;24.00;;;;;8.55;70.04;103294.25;5024105;28;45328;-73
2021/12/18 10:42:21;;;;;;;;;28.50;24.25;;;;;8.60;70.04;103298.97;5023734;28;45443;-73
2021/12/18 10:45:04;;;;;;;;;30.00;25.00;;;;;8.65;70.04;103289.59;5018808;28;46709;-73
2021/12/18 10:47:43;;;;;;;;;30.25;26.50;;;;;8.68;69.92;103293.22;5019640;28;45473;-73
2021/12/18 10:50:22;;;;;;;;;32.75;24.25;;;;;8.75;69.96;103285.78;5022148;28;45569;-74
2021/12/18 10:53:01;;;;;;;;;35.50;29.75;;;;;8.78;69.64;103287.69;5024085;28;45431;-73
2021/12/18 10:55:28;;;;;;;;;28.75;23.00;;;;;8.48;69.96;103229.81;5029344;28;47289;-73
2021/12/18 10:57:53;;;;;;;;;31.00;24.25;;;;;8.84;69.62;103273.16;5031488;28;46156;-74
2021/12/18 11:00:37;;;;;;;;;31.50;24.75;;;;;8.87;69.41;103272.41;5033582;28;45352;-73
2021/12/18 11:03:19;;;;;;;;;27.50;21.25;;;;;8.83;69.09;103251.97;5028876;28;45420;-73
2021/12/18 11:06:08;;;;;;;;;27.50;22.25;;;;;8.78;69.26;103238.53;5030396;28;45804;-74
2021/12/18 11:08:36;;;;;;;;;29.25;24.25;;;;;8.92;69.25;103263.03;5020861;28;45452;-74
2021/12/18 11:13:50;;;;;;;;;26.75;22.75;;;;;9.08;69.29;103273.63;5026779;28;45465;-73
2021/12/18 11:16:18;;;;;;;;;28.00;22.25;;;;;9.09;69.45;103264.88;5027886;28;46647;-74
2021/12/18 11:18:45;;;;;;;;;24.00;23.00;;;;;9.14;69.21;103259.88;5007515;28;45550;-74
2021/12/18 11:21:10;;;;;;;;;28.50;26.00;;;;;9.18;68.71;103262.78;5010553;28;45481;-74
2021/12/18 11:23:40;;;;;;;;;26.25;22.75;;;;;9.23;68.82;103273.56;5033152;28;45491;-74
2021/12/18 11:26:07;;;;;;;;;31.75;23.00;;;;;9.15;68.75;103251.16;5034450;28;46012;-74
2021/12/18 11:28:35;;;;;;;;;29.25;25.25;;;;;9.21;68.82;103256.75;5033725;28;45244;-74
2021/12/18 11:31:01;;;;;;;;;30.25;24.00;;;;;9.32;69.09;103271.47;5017189;28;45887;-73
2021/12/18 11:33:26;;;;;;;;;26.75;21.50;;;;;9.35;68.51;103257.53;5015922;28;45519;-73
2021/12/18 11:35:51;;;;;;;;;28.75;21.50;;;;;9.38;68.71;103252.44;5003788;28;45710;-73
2021/12/18 11:38:17;;;;;;;;;33.50;25.00;;;;;9.41;68.63;103249.94;5017694;28;45472;-74
2021/12/18 11:40:42;;;;;;;;;30.50;24.50;;;;;9.40;68.73;103249.03;4986279;28;45672;-73
2021/12/18 11:43:09;;;;;;;;;29.50;23.50;;;;;9.51;68.36;103259.25;5038017;28;45661;-73
2021/12/18 11:45:36;;;;;;;;;23.75;20.25;;;;;9.53;68.27;103245.31;5019240;28;45527;-73
2021/12/18 11:48:03;;;;;;;;;22.50;19.00;;;;;9.54;68.08;103248.91;5031280;28;45347;-74
2021/12/18 11:50:34;;;;;;;;;29.00;23.00;;;;;9.58;68.14;103246.47;5008680;28;45524;-73
2021/12/18 11:53:06;;;;;;;;;32.00;23.50;;;;;9.51;68.22;103230.25;4974122;28;45584;-73
2021/12/18 11:55:50;;;;;;;;;25.75;17.00;;;;;9.66;67.96;103246.91;5019802;28;45892;-73
2021/12/18 11:58:16;;;;;;;;;25.00;19.00;;;;;9.66;67.94;103245.16;5032475;28;45372;-74
2021/12/18 12:00:50;;;;;;;;;24.50;19.25;;;;;9.71;67.63;103248.97;5001730;28;45528;-74
2021/12/18 12:03:38;;;;;;;;;20.25;17.75;;;;;9.74;67.72;103249.94;5000052;28;45288;-73